sensor_id;sensor_type;location;lat;lon;timestamp;P1;durP1;ratioP1;P2;durP2;ratioP2
1010;SDS011;494;48.744;10.106;2022-09-29T00:01:23;10.30;;;3.60;;
1010;SDS011;494;48.744;10.106;2022-09-29T00:03:51;10.77;;;4.10;;
1010;SDS011;494;48.744;10.106;2022-09-29T00:06:20;10.93;;;4.10;;
1010;SDS011;494;48.744;10.106;2022-09-29T00:08:51;12.90;;;4.40;;
1010;SDS011;494;48.744;10.106;2022-09-29T00:11:21;14.00;;;4.70;;
1010;SDS011;494;48.744;10.106;2022-09-29T00:13:49;15.80;;;5.40;;
1010;SDS011;494;48.744;10.106;2022-09-29T00:16:19;17.07;;;5.40;;
1010;SDS011;494;48.744;10.106;2022-09-29T00:18:48;13.20;;;5.57;;
1010;SDS011;494;48.744;10.106;2022-09-29T00:21:17;13.33;;;5.00;;
1010;SDS011;494;48.744;10.106;2022-09-29T00:23:46;10.00;;;4.30;;
1010;SDS011;494;48.744;10.106;2022-09-29T00:26:17;11.93;;;3.60;;
1010;SDS011;494;48.744;10.106;2022-09-29T00:28:49;11.77;;;3.80;;
1010;SDS011;494;48.744;10.106;2022-09-29T00:31:23;9.73;;;3.70;;
1010;SDS011;494;48.744;10.106;2022-09-29T00:33:54;9.77;;;3.67;;
1010;SDS011;494;48.744;10.106;2022-09-29T00:36:24;12.13;;;4.00;;
1010;SDS011;494;48.744;10.106;2022-09-29T00:38:56;10.60;;;3.93;;
1010;SDS011;494;48.744;10.106;2022-09-29T00:41:26;17.20;;;4.20;;
1010;SDS011;494;48.744;10.106;2022-09-29T00:43:58;9.57;;;3.60;;
1010;SDS011;494;48.744;10.106;2022-09-29T00:46:34;9.97;;;4.57;;
1010;SDS011;494;48.744;10.106;2022-09-29T00:49:12;10.57;;;3.70;;
1010;SDS011;494;48.744;10.106;2022-09-29T00:51:50;11.23;;;3.60;;
1010;SDS011;494;48.744;10.106;2022-09-29T00:54:26;9.73;;;3.90;;
1010;SDS011;494;48.744;10.106;2022-09-29T00:57:03;9.40;;;3.40;;
1010;SDS011;494;48.744;10.106;2022-09-29T00:59:37;9.57;;;3.57;;
1010;SDS011;494;48.744;10.106;2022-09-29T01:02:14;13.13;;;4.10;;
1010;SDS011;494;48.744;10.106;2022-09-29T01:04:46;9.50;;;3.37;;
1010;SDS011;494;48.744;10.106;2022-09-29T01:07:18;9.47;;;3.47;;
1010;SDS011;494;48.744;10.106;2022-09-29T01:09:49;9.03;;;3.60;;
1010;SDS011;494;48.744;10.106;2022-09-29T01:12:21;8.37;;;3.00;;
1010;SDS011;494;48.744;10.106;2022-09-29T01:14:51;9.27;;;3.50;;
1010;SDS011;494;48.744;10.106;2022-09-29T01:17:23;10.83;;;3.70;;
1010;SDS011;494;48.744;10.106;2022-09-29T01:19:54;9.37;;;3.50;;
1010;SDS011;494;48.744;10.106;2022-09-29T01:25:54;10.23;;;3.80;;
1010;SDS011;494;48.744;10.106;2022-09-29T01:32:20;9.30;;;3.93;;
1010;SDS011;494;48.744;10.106;2022-09-29T01:35:01;12.60;;;3.83;;
1010;SDS011;494;48.744;10.106;2022-09-29T01:37:43;9.20;;;3.57;;
1010;SDS011;494;48.744;10.106;2022-09-29T01:40:25;8.63;;;3.40;;
1010;SDS011;494;48.744;10.106;2022-09-29T01:43:03;8.90;;;3.60;;
1010;SDS011;494;48.744;10.106;2022-09-29T01:45:37;10.00;;;3.33;;
1010;SDS011;494;48.744;10.106;2022-09-29T01:48:13;9.20;;;3.33;;
1010;SDS011;494;48.744;10.106;2022-09-29T01:50:48;9.33;;;3.20;;
1010;SDS011;494;48.744;10.106;2022-09-29T01:53:22;11.43;;;3.53;;
1010;SDS011;494;48.744;10.106;2022-09-29T01:56:03;8.83;;;3.20;;
1010;SDS011;494;48.744;10.106;2022-09-29T01:58:41;10.10;;;3.73;;
1010;SDS011;494;48.744;10.106;2022-09-29T02:01:19;10.13;;;3.33;;
1010;SDS011;494;48.744;10.106;2022-09-29T02:03:55;11.37;;;3.77;;
1010;SDS011;494;48.744;10.106;2022-09-29T02:06:31;9.03;;;3.40;;
1010;SDS011;494;48.744;10.106;2022-09-29T02:09:07;11.73;;;3.50;;
1010;SDS011;494;48.744;10.106;2022-09-29T02:11:41;10.73;;;3.40;;
1010;SDS011;494;48.744;10.106;2022-09-29T02:14:11;9.50;;;3.40;;
1010;SDS011;494;48.744;10.106;2022-09-29T02:16:46;10.30;;;3.50;;
1010;SDS011;494;48.744;10.106;2022-09-29T02:19:24;10.60;;;3.57;;
1010;SDS011;494;48.744;10.106;2022-09-29T02:21:57;9.30;;;3.50;;
1010;SDS011;494;48.744;10.106;2022-09-29T02:24:25;8.80;;;3.23;;
1010;SDS011;494;48.744;10.106;2022-09-29T02:26:54;11.07;;;4.10;;
1010;SDS011;494;48.744;10.106;2022-09-29T02:29:23;10.40;;;4.20;;
1010;SDS011;494;48.744;10.106;2022-09-29T02:31:52;10.70;;;3.93;;
1010;SDS011;494;48.744;10.106;2022-09-29T02:34:28;10.33;;;4.20;;
1010;SDS011;494;48.744;10.106;2022-09-29T02:37:01;9.93;;;3.73;;
1010;SDS011;494;48.744;10.106;2022-09-29T02:39:50;11.60;;;4.50;;
1010;SDS011;494;48.744;10.106;2022-09-29T02:42:33;10.50;;;4.30;;
1010;SDS011;494;48.744;10.106;2022-09-29T02:45:21;9.60;;;4.20;;
1010;SDS011;494;48.744;10.106;2022-09-29T02:48:05;9.40;;;3.83;;
1010;SDS011;494;48.744;10.106;2022-09-29T02:50:57;11.07;;;4.20;;
1010;SDS011;494;48.744;10.106;2022-09-29T02:53:44;13.23;;;4.00;;
1010;SDS011;494;48.744;10.106;2022-09-29T02:56:32;11.10;;;4.50;;
1010;SDS011;494;48.744;10.106;2022-09-29T02:59:11;9.40;;;3.80;;
1010;SDS011;494;48.744;10.106;2022-09-29T03:01:47;9.40;;;3.97;;
1010;SDS011;494;48.744;10.106;2022-09-29T03:04:18;9.10;;;3.70;;
1010;SDS011;494;48.744;10.106;2022-09-29T03:06:51;12.10;;;3.87;;
1010;SDS011;494;48.744;10.106;2022-09-29T03:09:20;9.70;;;3.53;;
1010;SDS011;494;48.744;10.106;2022-09-29T03:11:48;17.20;;;7.60;;
1010;SDS011;494;48.744;10.106;2022-09-29T03:14:17;15.57;;;7.63;;
1010;SDS011;494;48.744;10.106;2022-09-29T03:16:45;12.00;;;5.00;;
1010;SDS011;494;48.744;10.106;2022-09-29T03:19:14;10.03;;;4.17;;
1010;SDS011;494;48.744;10.106;2022-09-29T03:21:43;12.77;;;4.43;;
1010;SDS011;494;48.744;10.106;2022-09-29T03:24:12;10.40;;;4.03;;
1010;SDS011;494;48.744;10.106;2022-09-29T03:26:41;9.47;;;3.57;;
1010;SDS011;494;48.744;10.106;2022-09-29T03:29:09;12.33;;;3.87;;
1010;SDS011;494;48.744;10.106;2022-09-29T03:31:38;11.90;;;3.73;;
1010;SDS011;494;48.744;10.106;2022-09-29T03:34:07;10.70;;;3.93;;
1010;SDS011;494;48.744;10.106;2022-09-29T03:36:35;14.47;;;4.27;;
1010;SDS011;494;48.744;10.106;2022-09-29T03:39:04;12.40;;;3.53;;
1010;SDS011;494;48.744;10.106;2022-09-29T03:41:34;9.63;;;3.83;;
1010;SDS011;494;48.744;10.106;2022-09-29T03:44:02;11.00;;;4.80;;
1010;SDS011;494;48.744;10.106;2022-09-29T03:46:31;12.20;;;5.53;;
1010;SDS011;494;48.744;10.106;2022-09-29T03:48:59;9.13;;;3.37;;
1010;SDS011;494;48.744;10.106;2022-09-29T03:51:28;12.83;;;4.17;;
1010;SDS011;494;48.744;10.106;2022-09-29T03:53:56;10.07;;;4.83;;
1010;SDS011;494;48.744;10.106;2022-09-29T03:56:24;12.10;;;5.90;;
1010;SDS011;494;48.744;10.106;2022-09-29T03:58:54;10.87;;;5.80;;
1010;SDS011;494;48.744;10.106;2022-09-29T04:01:23;9.60;;;4.47;;
1010;SDS011;494;48.744;10.106;2022-09-29T04:03:52;11.23;;;4.63;;
1010;SDS011;494;48.744;10.106;2022-09-29T04:06:20;13.97;;;5.67;;
1010;SDS011;494;48.744;10.106;2022-09-29T04:08:49;11.77;;;4.83;;
1010;SDS011;494;48.744;10.106;2022-09-29T04:11:17;11.80;;;5.03;;
1010;SDS011;494;48.744;10.106;2022-09-29T04:13:45;11.40;;;5.17;;
1010;SDS011;494;48.744;10.106;2022-09-29T04:16:16;11.23;;;4.80;;
1010;SDS011;494;48.744;10.106;2022-09-29T04:18:44;13.90;;;5.67;;
1010;SDS011;494;48.744;10.106;2022-09-29T04:21:13;11.80;;;5.80;;
1010;SDS011;494;48.744;10.106;2022-09-29T04:23:42;15.90;;;6.30;;
1010;SDS011;494;48.744;10.106;2022-09-29T04:26:10;14.23;;;7.10;;
1010;SDS011;494;48.744;10.106;2022-09-29T04:28:39;11.73;;;5.60;;
1010;SDS011;494;48.744;10.106;2022-09-29T04:31:08;10.57;;;4.43;;
1010;SDS011;494;48.744;10.106;2022-09-29T04:33:38;10.03;;;4.30;;
1010;SDS011;494;48.744;10.106;2022-09-29T04:36:07;9.87;;;4.40;;
1010;SDS011;494;48.744;10.106;2022-09-29T04:38:35;10.77;;;4.53;;
1010;SDS011;494;48.744;10.106;2022-09-29T04:41:04;10.67;;;4.10;;
1010;SDS011;494;48.744;10.106;2022-09-29T04:43:32;11.77;;;4.20;;
1010;SDS011;494;48.744;10.106;2022-09-29T04:46:04;12.30;;;5.10;;
1010;SDS011;494;48.744;10.106;2022-09-29T04:48:34;8.80;;;3.60;;
1010;SDS011;494;48.744;10.106;2022-09-29T04:51:05;11.20;;;5.37;;
1010;SDS011;494;48.744;10.106;2022-09-29T04:53:35;11.40;;;5.40;;
1010;SDS011;494;48.744;10.106;2022-09-29T04:56:04;12.07;;;5.30;;
1010;SDS011;494;48.744;10.106;2022-09-29T04:58:34;11.10;;;4.40;;
1010;SDS011;494;48.744;10.106;2022-09-29T05:01:06;12.00;;;4.73;;
1010;SDS011;494;48.744;10.106;2022-09-29T05:03:38;13.20;;;4.50;;
1010;SDS011;494;48.744;10.106;2022-09-29T05:06:08;9.60;;;3.93;;
1010;SDS011;494;48.744;10.106;2022-09-29T05:08:37;9.23;;;3.47;;
1010;SDS011;494;48.744;10.106;2022-09-29T05:11:05;9.80;;;3.57;;
1010;SDS011;494;48.744;10.106;2022-09-29T05:13:36;11.00;;;4.20;;
1010;SDS011;494;48.744;10.106;2022-09-29T05:16:05;10.23;;;4.00;;
1010;SDS011;494;48.744;10.106;2022-09-29T05:18:34;11.70;;;4.83;;
1010;SDS011;494;48.744;10.106;2022-09-29T05:21:03;12.90;;;4.97;;
1010;SDS011;494;48.744;10.106;2022-09-29T05:23:55;14.93;;;5.67;;
1010;SDS011;494;48.744;10.106;2022-09-29T05:26:24;12.80;;;5.70;;
1010;SDS011;494;48.744;10.106;2022-09-29T05:28:52;15.00;;;5.10;;
1010;SDS011;494;48.744;10.106;2022-09-29T05:31:21;13.53;;;5.83;;
1010;SDS011;494;48.744;10.106;2022-09-29T05:33:49;14.40;;;5.07;;
1010;SDS011;494;48.744;10.106;2022-09-29T05:36:18;11.33;;;4.40;;
1010;SDS011;494;48.744;10.106;2022-09-29T05:38:46;11.10;;;4.43;;
1010;SDS011;494;48.744;10.106;2022-09-29T05:41:16;14.03;;;5.33;;
1010;SDS011;494;48.744;10.106;2022-09-29T05:43:48;14.90;;;6.30;;
1010;SDS011;494;48.744;10.106;2022-09-29T05:46:19;15.23;;;6.60;;
1010;SDS011;494;48.744;10.106;2022-09-29T05:48:49;15.40;;;6.90;;
1010;SDS011;494;48.744;10.106;2022-09-29T05:51:18;17.50;;;7.20;;
1010;SDS011;494;48.744;10.106;2022-09-29T05:53:49;21.60;;;8.47;;
1010;SDS011;494;48.744;10.106;2022-09-29T05:56:20;20.60;;;9.43;;
1010;SDS011;494;48.744;10.106;2022-09-29T05:58:51;36.17;;;16.80;;
1010;SDS011;494;48.744;10.106;2022-09-29T06:01:21;38.80;;;18.03;;
1010;SDS011;494;48.744;10.106;2022-09-29T06:03:52;15.20;;;7.37;;
1010;SDS011;494;48.744;10.106;2022-09-29T06:06:22;15.10;;;8.50;;
1010;SDS011;494;48.744;10.106;2022-09-29T06:08:53;33.10;;;18.90;;
1010;SDS011;494;48.744;10.106;2022-09-29T06:11:25;26.47;;;15.40;;
1010;SDS011;494;48.744;10.106;2022-09-29T06:13:56;24.53;;;13.03;;
1010;SDS011;494;48.744;10.106;2022-09-29T06:16:26;15.47;;;7.90;;
1010;SDS011;494;48.744;10.106;2022-09-29T06:18:57;13.20;;;7.00;;
1010;SDS011;494;48.744;10.106;2022-09-29T06:21:27;12.77;;;6.27;;
1010;SDS011;494;48.744;10.106;2022-09-29T06:23:57;11.93;;;5.70;;
1010;SDS011;494;48.744;10.106;2022-09-29T06:26:27;15.47;;;5.67;;
1010;SDS011;494;48.744;10.106;2022-09-29T06:28:56;11.20;;;5.90;;
1010;SDS011;494;48.744;10.106;2022-09-29T06:31:25;13.17;;;6.17;;
1010;SDS011;494;48.744;10.106;2022-09-29T06:33:56;11.07;;;5.80;;
1010;SDS011;494;48.744;10.106;2022-09-29T06:36:27;13.47;;;7.07;;
1010;SDS011;494;48.744;10.106;2022-09-29T06:39:17;16.03;;;7.83;;
1010;SDS011;494;48.744;10.106;2022-09-29T06:41:48;18.63;;;9.10;;
1010;SDS011;494;48.744;10.106;2022-09-29T06:44:20;18.70;;;8.77;;
1010;SDS011;494;48.744;10.106;2022-09-29T06:46:51;17.93;;;10.40;;
1010;SDS011;494;48.744;10.106;2022-09-29T06:49:20;24.47;;;13.43;;
1010;SDS011;494;48.744;10.106;2022-09-29T06:51:50;21.70;;;11.50;;
1010;SDS011;494;48.744;10.106;2022-09-29T06:54:19;23.13;;;12.03;;
1010;SDS011;494;48.744;10.106;2022-09-29T06:56:52;37.90;;;17.90;;
1010;SDS011;494;48.744;10.106;2022-09-29T06:59:21;25.70;;;12.70;;
1010;SDS011;494;48.744;10.106;2022-09-29T07:01:50;26.07;;;11.80;;
1010;SDS011;494;48.744;10.106;2022-09-29T07:04:19;26.30;;;12.07;;
1010;SDS011;494;48.744;10.106;2022-09-29T07:06:48;21.77;;;11.80;;
1010;SDS011;494;48.744;10.106;2022-09-29T07:09:18;23.07;;;11.77;;
1010;SDS011;494;48.744;10.106;2022-09-29T07:11:48;21.20;;;12.10;;
1010;SDS011;494;48.744;10.106;2022-09-29T07:14:19;15.40;;;8.30;;
1010;SDS011;494;48.744;10.106;2022-09-29T07:16:50;13.67;;;6.53;;
1010;SDS011;494;48.744;10.106;2022-09-29T07:19:20;20.70;;;9.63;;
1010;SDS011;494;48.744;10.106;2022-09-29T07:21:48;16.23;;;8.43;;
1010;SDS011;494;48.744;10.106;2022-09-29T07:24:18;17.50;;;9.87;;
1010;SDS011;494;48.744;10.106;2022-09-29T07:26:46;18.87;;;9.33;;
1010;SDS011;494;48.744;10.106;2022-09-29T07:29:16;17.20;;;9.00;;
1010;SDS011;494;48.744;10.106;2022-09-29T07:31:45;19.80;;;9.17;;
1010;SDS011;494;48.744;10.106;2022-09-29T07:34:17;15.20;;;8.13;;
1010;SDS011;494;48.744;10.106;2022-09-29T07:36:47;15.10;;;7.97;;
1010;SDS011;494;48.744;10.106;2022-09-29T07:39:16;14.50;;;6.20;;
1010;SDS011;494;48.744;10.106;2022-09-29T07:41:47;14.70;;;7.23;;
1010;SDS011;494;48.744;10.106;2022-09-29T07:44:17;15.13;;;7.67;;
1010;SDS011;494;48.744;10.106;2022-09-29T07:46:47;15.40;;;8.20;;
1010;SDS011;494;48.744;10.106;2022-09-29T07:49:15;17.50;;;7.70;;
1010;SDS011;494;48.744;10.106;2022-09-29T07:51:45;13.47;;;6.83;;
1010;SDS011;494;48.744;10.106;2022-09-29T07:54:14;12.20;;;5.93;;
1010;SDS011;494;48.744;10.106;2022-09-29T07:56:43;13.37;;;6.10;;
1010;SDS011;494;48.744;10.106;2022-09-29T07:59:11;16.77;;;9.13;;
1010;SDS011;494;48.744;10.106;2022-09-29T08:01:41;20.40;;;10.07;;
1010;SDS011;494;48.744;10.106;2022-09-29T08:04:10;19.97;;;10.33;;
1010;SDS011;494;48.744;10.106;2022-09-29T08:06:39;19.00;;;10.90;;
1010;SDS011;494;48.744;10.106;2022-09-29T08:09:07;18.90;;;11.47;;
1010;SDS011;494;48.744;10.106;2022-09-29T08:11:36;22.73;;;12.47;;
1010;SDS011;494;48.744;10.106;2022-09-29T08:14:07;20.53;;;10.40;;
1010;SDS011;494;48.744;10.106;2022-09-29T08:16:37;22.10;;;10.27;;
1010;SDS011;494;48.744;10.106;2022-09-29T08:19:07;23.73;;;10.27;;
1010;SDS011;494;48.744;10.106;2022-09-29T08:21:36;20.20;;;10.50;;
1010;SDS011;494;48.744;10.106;2022-09-29T08:24:04;19.90;;;9.93;;
1010;SDS011;494;48.744;10.106;2022-09-29T08:26:34;18.10;;;9.20;;
1010;SDS011;494;48.744;10.106;2022-09-29T08:29:09;17.73;;;9.73;;
1010;SDS011;494;48.744;10.106;2022-09-29T08:31:42;25.37;;;9.97;;
1010;SDS011;494;48.744;10.106;2022-09-29T08:34:14;19.40;;;9.93;;
1010;SDS011;494;48.744;10.106;2022-09-29T08:36:43;20.80;;;10.60;;
1010;SDS011;494;48.744;10.106;2022-09-29T08:39:11;19.63;;;9.10;;
1010;SDS011;494;48.744;10.106;2022-09-29T08:41:51;18.40;;;10.07;;
1010;SDS011;494;48.744;10.106;2022-09-29T08:44:27;16.50;;;7.90;;
1010;SDS011;494;48.744;10.106;2022-09-29T08:47:10;18.37;;;8.13;;
1010;SDS011;494;48.744;10.106;2022-09-29T08:49:49;17.40;;;8.57;;
1010;SDS011;494;48.744;10.106;2022-09-29T08:52:25;17.17;;;8.13;;
1010;SDS011;494;48.744;10.106;2022-09-29T08:55:19;17.20;;;7.50;;
1010;SDS011;494;48.744;10.106;2022-09-29T08:57:56;15.20;;;7.77;;
1010;SDS011;494;48.744;10.106;2022-09-29T09:00:29;16.70;;;8.50;;
1010;SDS011;494;48.744;10.106;2022-09-29T09:03:11;14.30;;;7.40;;
1010;SDS011;494;48.744;10.106;2022-09-29T09:06:15;18.07;;;8.27;;
1010;SDS011;494;48.744;10.106;2022-09-29T09:09:03;14.30;;;7.20;;
1010;SDS011;494;48.744;10.106;2022-09-29T09:11:49;17.23;;;7.87;;
1010;SDS011;494;48.744;10.106;2022-09-29T09:14:39;17.03;;;8.20;;
1010;SDS011;494;48.744;10.106;2022-09-29T09:17:37;16.63;;;10.10;;
1010;SDS011;494;48.744;10.106;2022-09-29T09:20:25;17.63;;;11.20;;
1010;SDS011;494;48.744;10.106;2022-09-29T09:23:05;17.70;;;10.33;;
1010;SDS011;494;48.744;10.106;2022-09-29T09:25:45;18.57;;;10.20;;
1010;SDS011;494;48.744;10.106;2022-09-29T09:28:18;18.77;;;9.10;;
1010;SDS011;494;48.744;10.106;2022-09-29T09:30:54;18.37;;;10.00;;
1010;SDS011;494;48.744;10.106;2022-09-29T09:33:30;17.10;;;10.07;;
1010;SDS011;494;48.744;10.106;2022-09-29T09:36:07;17.80;;;9.53;;
1010;SDS011;494;48.744;10.106;2022-09-29T09:38:59;18.93;;;10.37;;
1010;SDS011;494;48.744;10.106;2022-09-29T09:41:36;18.50;;;10.83;;
1010;SDS011;494;48.744;10.106;2022-09-29T09:44:09;16.67;;;9.93;;
1010;SDS011;494;48.744;10.106;2022-09-29T09:46:44;15.40;;;9.37;;
1010;SDS011;494;48.744;10.106;2022-09-29T09:49:19;21.60;;;10.30;;
1010;SDS011;494;48.744;10.106;2022-09-29T09:51:54;16.93;;;10.20;;
1010;SDS011;494;48.744;10.106;2022-09-29T09:54:32;18.03;;;10.10;;
1010;SDS011;494;48.744;10.106;2022-09-29T09:57:12;16.80;;;9.67;;
1010;SDS011;494;48.744;10.106;2022-09-29T10:00:12;18.07;;;11.27;;
1010;SDS011;494;48.744;10.106;2022-09-29T10:02:43;16.87;;;10.13;;
1010;SDS011;494;48.744;10.106;2022-09-29T10:05:15;20.00;;;10.80;;
1010;SDS011;494;48.744;10.106;2022-09-29T10:07:46;18.87;;;11.10;;
1010;SDS011;494;48.744;10.106;2022-09-29T10:10:20;17.47;;;9.63;;
1010;SDS011;494;48.744;10.106;2022-09-29T10:12:54;18.60;;;10.50;;
1010;SDS011;494;48.744;10.106;2022-09-29T10:15:30;18.07;;;10.20;;
1010;SDS011;494;48.744;10.106;2022-09-29T10:18:10;18.13;;;8.77;;
1010;SDS011;494;48.744;10.106;2022-09-29T10:20:43;18.23;;;7.80;;
1010;SDS011;494;48.744;10.106;2022-09-29T10:26:07;16.03;;;8.00;;
1010;SDS011;494;48.744;10.106;2022-09-29T10:28:43;17.00;;;8.53;;
1010;SDS011;494;48.744;10.106;2022-09-29T10:31:19;17.53;;;8.93;;
1010;SDS011;494;48.744;10.106;2022-09-29T10:33:52;20.77;;;8.40;;
1010;SDS011;494;48.744;10.106;2022-09-29T10:36:25;18.33;;;8.43;;
1010;SDS011;494;48.744;10.106;2022-09-29T10:38:57;16.93;;;9.03;;
1010;SDS011;494;48.744;10.106;2022-09-29T10:41:30;19.10;;;9.80;;
1010;SDS011;494;48.744;10.106;2022-09-29T10:44:20;16.67;;;8.53;;
1010;SDS011;494;48.744;10.106;2022-09-29T10:46:51;16.77;;;7.60;;
1010;SDS011;494;48.744;10.106;2022-09-29T10:49:22;17.20;;;8.77;;
1010;SDS011;494;48.744;10.106;2022-09-29T10:51:55;16.77;;;9.10;;
1010;SDS011;494;48.744;10.106;2022-09-29T10:54:29;18.33;;;7.70;;
1010;SDS011;494;48.744;10.106;2022-09-29T10:57:11;17.80;;;10.03;;
1010;SDS011;494;48.744;10.106;2022-09-29T10:59:45;21.87;;;9.80;;
1010;SDS011;494;48.744;10.106;2022-09-29T11:02:17;19.10;;;11.10;;
1010;SDS011;494;48.744;10.106;2022-09-29T11:04:53;18.40;;;12.00;;
1010;SDS011;494;48.744;10.106;2022-09-29T11:07:27;17.97;;;11.40;;
1010;SDS011;494;48.744;10.106;2022-09-29T11:09:59;16.30;;;9.20;;
1010;SDS011;494;48.744;10.106;2022-09-29T11:12:31;13.30;;;6.60;;
1010;SDS011;494;48.744;10.106;2022-09-29T11:15:20;14.30;;;6.13;;
1010;SDS011;494;48.744;10.106;2022-09-29T11:17:52;15.30;;;6.50;;
1010;SDS011;494;48.744;10.106;2022-09-29T11:20:28;14.87;;;7.20;;
1010;SDS011;494;48.744;10.106;2022-09-29T11:23:09;15.13;;;6.97;;
1010;SDS011;494;48.744;10.106;2022-09-29T11:25:59;16.70;;;7.80;;
1010;SDS011;494;48.744;10.106;2022-09-29T11:28:55;14.73;;;6.93;;
1010;SDS011;494;48.744;10.106;2022-09-29T11:31:37;16.63;;;8.13;;
1010;SDS011;494;48.744;10.106;2022-09-29T11:34:30;16.47;;;11.80;;
1010;SDS011;494;48.744;10.106;2022-09-29T11:37:16;16.80;;;11.90;;
1010;SDS011;494;48.744;10.106;2022-09-29T11:40:08;17.80;;;11.30;;
1010;SDS011;494;48.744;10.106;2022-09-29T11:42:49;20.17;;;11.30;;
1010;SDS011;494;48.744;10.106;2022-09-29T11:45:38;20.50;;;11.53;;
1010;SDS011;494;48.744;10.106;2022-09-29T11:51:21;15.43;;;11.33;;
1010;SDS011;494;48.744;10.106;2022-09-29T11:56:59;16.73;;;10.40;;
1010;SDS011;494;48.744;10.106;2022-09-29T11:59:39;16.57;;;10.47;;
1010;SDS011;494;48.744;10.106;2022-09-29T12:02:41;15.20;;;10.60;;
1010;SDS011;494;48.744;10.106;2022-09-29T12:05:43;15.10;;;9.77;;
1010;SDS011;494;48.744;10.106;2022-09-29T12:08:37;15.67;;;10.70;;
1010;SDS011;494;48.744;10.106;2022-09-29T12:11:24;15.70;;;10.10;;
1010;SDS011;494;48.744;10.106;2022-09-29T12:14:26;13.73;;;10.10;;
1010;SDS011;494;48.744;10.106;2022-09-29T12:17:08;14.53;;;9.70;;
1010;SDS011;494;48.744;10.106;2022-09-29T12:19:44;15.33;;;10.10;;
1010;SDS011;494;48.744;10.106;2022-09-29T12:22:18;13.70;;;9.20;;
1010;SDS011;494;48.744;10.106;2022-09-29T12:24:49;15.67;;;10.30;;
1010;SDS011;494;48.744;10.106;2022-09-29T12:27:22;13.40;;;8.90;;
1010;SDS011;494;48.744;10.106;2022-09-29T12:29:56;14.30;;;10.27;;
1010;SDS011;494;48.744;10.106;2022-09-29T12:32:31;17.20;;;11.00;;
1010;SDS011;494;48.744;10.106;2022-09-29T12:35:09;14.70;;;10.00;;
1010;SDS011;494;48.744;10.106;2022-09-29T12:37:45;14.67;;;9.77;;
1010;SDS011;494;48.744;10.106;2022-09-29T12:40:23;13.77;;;9.30;;
1010;SDS011;494;48.744;10.106;2022-09-29T12:43:03;14.30;;;9.37;;
1010;SDS011;494;48.744;10.106;2022-09-29T12:45:43;14.57;;;9.70;;
1010;SDS011;494;48.744;10.106;2022-09-29T12:48:24;15.03;;;9.57;;
1010;SDS011;494;48.744;10.106;2022-09-29T12:51:11;14.50;;;9.83;;
1010;SDS011;494;48.744;10.106;2022-09-29T12:53:50;13.40;;;9.00;;
1010;SDS011;494;48.744;10.106;2022-09-29T12:56:38;12.37;;;8.70;;
1010;SDS011;494;48.744;10.106;2022-09-29T12:59:13;11.07;;;6.87;;
1010;SDS011;494;48.744;10.106;2022-09-29T13:01:57;11.97;;;6.70;;
1010;SDS011;494;48.744;10.106;2022-09-29T13:04:31;11.37;;;7.13;;
1010;SDS011;494;48.744;10.106;2022-09-29T13:08:02;12.30;;;4.70;;
1010;SDS011;494;48.744;10.106;2022-09-29T13:11:24;10.70;;;3.13;;
1010;SDS011;494;48.744;10.106;2022-09-29T13:14:23;9.67;;;4.30;;
1010;SDS011;494;48.744;10.106;2022-09-29T13:17:12;11.73;;;5.03;;
1010;SDS011;494;48.744;10.106;2022-09-29T13:23:15;8.67;;;3.00;;
1010;SDS011;494;48.744;10.106;2022-09-29T13:26:10;9.27;;;2.77;;
1010;SDS011;494;48.744;10.106;2022-09-29T13:29:01;9.90;;;2.87;;
1010;SDS011;494;48.744;10.106;2022-09-29T13:31:40;10.00;;;2.60;;
1010;SDS011;494;48.744;10.106;2022-09-29T13:34:17;10.83;;;3.20;;
1010;SDS011;494;48.744;10.106;2022-09-29T13:37:03;21.83;;;7.30;;
1010;SDS011;494;48.744;10.106;2022-09-29T13:39:41;11.03;;;2.83;;
1010;SDS011;494;48.744;10.106;2022-09-29T13:42:27;10.80;;;3.03;;
1010;SDS011;494;48.744;10.106;2022-09-29T13:45:15;13.60;;;5.20;;
1010;SDS011;494;48.744;10.106;2022-09-29T13:54:29;12.53;;;4.17;;
1010;SDS011;494;48.744;10.106;2022-09-29T13:57:16;9.93;;;2.60;;
1010;SDS011;494;48.744;10.106;2022-09-29T14:03:03;10.70;;;2.70;;
1010;SDS011;494;48.744;10.106;2022-09-29T14:05:52;9.77;;;3.10;;
1010;SDS011;494;48.744;10.106;2022-09-29T14:08:25;11.30;;;3.10;;
1010;SDS011;494;48.744;10.106;2022-09-29T14:11:00;14.60;;;6.47;;
1010;SDS011;494;48.744;10.106;2022-09-29T14:13:51;13.90;;;6.23;;
1010;SDS011;494;48.744;10.106;2022-09-29T14:16:30;13.57;;;5.70;;
1010;SDS011;494;48.744;10.106;2022-09-29T14:19:17;13.57;;;4.03;;
1010;SDS011;494;48.744;10.106;2022-09-29T14:22:01;13.30;;;5.07;;
1010;SDS011;494;48.744;10.106;2022-09-29T14:24:41;12.80;;;4.20;;
1010;SDS011;494;48.744;10.106;2022-09-29T14:27:23;13.77;;;6.37;;
1010;SDS011;494;48.744;10.106;2022-09-29T14:30:12;14.87;;;9.23;;
1010;SDS011;494;48.744;10.106;2022-09-29T14:32:47;14.47;;;8.03;;
1010;SDS011;494;48.744;10.106;2022-09-29T14:35:24;14.63;;;5.83;;
1010;SDS011;494;48.744;10.106;2022-09-29T14:37:58;11.90;;;3.90;;
1010;SDS011;494;48.744;10.106;2022-09-29T14:40:35;15.57;;;6.50;;
1010;SDS011;494;48.744;10.106;2022-09-29T14:43:04;12.33;;;4.00;;
1010;SDS011;494;48.744;10.106;2022-09-29T14:45:43;11.40;;;2.50;;
1010;SDS011;494;48.744;10.106;2022-09-29T14:49:24;12.10;;;4.00;;
1010;SDS011;494;48.744;10.106;2022-09-29T14:52:41;9.90;;;2.90;;
1010;SDS011;494;48.744;10.106;2022-09-29T14:55:27;18.60;;;8.13;;
1010;SDS011;494;48.744;10.106;2022-09-29T14:58:14;12.70;;;4.93;;
1010;SDS011;494;48.744;10.106;2022-09-29T15:01:01;10.77;;;3.27;;
1010;SDS011;494;48.744;10.106;2022-09-29T15:03:39;11.70;;;3.00;;
1010;SDS011;494;48.744;10.106;2022-09-29T15:06:13;10.00;;;2.80;;
1010;SDS011;494;48.744;10.106;2022-09-29T15:08:52;12.37;;;3.90;;
1010;SDS011;494;48.744;10.106;2022-09-29T15:11:29;11.80;;;3.40;;
1010;SDS011;494;48.744;10.106;2022-09-29T15:14:15;12.10;;;3.10;;
1010;SDS011;494;48.744;10.106;2022-09-29T15:16:58;11.10;;;3.17;;
1010;SDS011;494;48.744;10.106;2022-09-29T15:19:41;13.93;;;5.50;;
1010;SDS011;494;48.744;10.106;2022-09-29T15:22:29;13.50;;;3.37;;
1010;SDS011;494;48.744;10.106;2022-09-29T15:25:21;10.37;;;2.33;;
1010;SDS011;494;48.744;10.106;2022-09-29T15:27:55;11.23;;;3.70;;
1010;SDS011;494;48.744;10.106;2022-09-29T15:30:30;13.50;;;4.73;;
1010;SDS011;494;48.744;10.106;2022-09-29T15:33:08;10.67;;;3.43;;
1010;SDS011;494;48.744;10.106;2022-09-29T15:35:49;15.77;;;3.20;;
1010;SDS011;494;48.744;10.106;2022-09-29T15:38:26;11.57;;;3.20;;
1010;SDS011;494;48.744;10.106;2022-09-29T15:41:04;10.80;;;3.67;;
1010;SDS011;494;48.744;10.106;2022-09-29T15:43:43;9.00;;;3.33;;
1010;SDS011;494;48.744;10.106;2022-09-29T15:46:23;13.30;;;4.00;;
1010;SDS011;494;48.744;10.106;2022-09-29T15:49:16;9.80;;;3.47;;
1010;SDS011;494;48.744;10.106;2022-09-29T15:51:53;13.10;;;3.30;;
1010;SDS011;494;48.744;10.106;2022-09-29T15:54:26;12.70;;;2.70;;
1010;SDS011;494;48.744;10.106;2022-09-29T15:57:00;15.23;;;6.00;;
1010;SDS011;494;48.744;10.106;2022-09-29T15:59:46;13.10;;;6.17;;
1010;SDS011;494;48.744;10.106;2022-09-29T16:02:23;9.33;;;3.43;;
1010;SDS011;494;48.744;10.106;2022-09-29T16:04:58;11.40;;;4.23;;
1010;SDS011;494;48.744;10.106;2022-09-29T16:07:31;13.10;;;7.23;;
1010;SDS011;494;48.744;10.106;2022-09-29T16:10:05;9.77;;;3.80;;
1010;SDS011;494;48.744;10.106;2022-09-29T16:12:44;16.30;;;8.30;;
1010;SDS011;494;48.744;10.106;2022-09-29T16:15:20;10.90;;;3.63;;
1010;SDS011;494;48.744;10.106;2022-09-29T16:17:56;8.80;;;2.50;;
1010;SDS011;494;48.744;10.106;2022-09-29T16:20:29;10.00;;;3.10;;
1010;SDS011;494;48.744;10.106;2022-09-29T16:23:05;15.27;;;5.67;;